ROMMA est une association bénévole à but non lucratif. Votre soutien est indispensable : ADHERER à ROMMA ou FAIRE un DON

Le Versoud - (38, Isère)

Vallée du Grésivaudan (220 m)   Longitude: 05° 51' 44" E   Latitude: 45° 13' 06" N Station partenaire n°6
 

Détail journalier du     <<     >>

Température Humidité Pression Vent Dir Rafale Dir. rafale Ensol.
Heure (°C) (%) (hPa) (km/h) (km/h) (min)
01:00 12.994101100---0
02:00 13.094101100---0
03:00 13.195101100---0
04:00 13.195101000---0
05:00 13.296101000---0
06:00 13.3961011011SE0
07:00 13.296101006E0
08:00 13.496101106E0
09:00 13.695101003E0
10:00 13.995101002NNE0
11:00 14.993100902NNE15
12:00 16.090100906ENE0
13:00 17.385100802ENE0
14:00 18.182100702ENE0
15:00 18.783100506ENE0
16:00 20.279100505ENE10
17:00 23.24910053SSO26SO25
18:00 21.26010061SSO19SSO0
19:00 20.1641006015SE0
20:00 18.4711006011SSE0
21:00 15.886100700---0
22:00 15.288100600---0
23:00 14.889100700---0
minuit 14.191100700---0

Graphique du 19-10-2019

 

Serveur OMMA